createdAt,value
2023-06-30T00:00:13.536Z,19.89
2023-06-30T00:02:43.286Z,19.88
2023-06-30T00:05:11.278Z,19.77
2023-06-30T00:07:39.033Z,19.79
2023-06-30T00:10:08.225Z,19.69
2023-06-30T00:12:35.830Z,19.66
2023-06-30T00:15:03.816Z,19.55
2023-06-30T00:17:32.127Z,19.65
2023-06-30T00:20:00.467Z,19.70
2023-06-30T00:22:28.345Z,19.72
2023-06-30T00:24:57.438Z,19.65
2023-06-30T00:27:25.214Z,19.64
2023-06-30T00:29:52.661Z,19.73
2023-06-30T00:32:21.392Z,19.61
2023-06-30T00:34:48.862Z,19.47
2023-06-30T00:37:16.553Z,19.49
2023-06-30T00:39:44.385Z,19.51
2023-06-30T00:42:11.807Z,19.36
2023-06-30T00:44:39.305Z,19.17
2023-06-30T00:47:07.248Z,19.14
2023-06-30T00:49:35.073Z,19.19
2023-06-30T00:52:02.652Z,19.19
2023-06-30T00:54:30.633Z,19.28
2023-06-30T00:56:59.523Z,19.21
2023-06-30T00:59:27.268Z,19.09
2023-06-30T01:02:00.102Z,19.18
2023-06-30T01:04:49.190Z,19.06
2023-06-30T01:07:39.419Z,19.04
2023-06-30T01:10:12.160Z,19.06
2023-06-30T01:12:40.267Z,19.00
2023-06-30T01:15:10.903Z,19.09
2023-06-30T01:17:45.233Z,18.99
2023-06-30T01:20:14.841Z,18.90
2023-06-30T01:22:49.669Z,18.97
2023-06-30T01:25:22.492Z,18.94
2023-06-30T01:27:50.559Z,18.87
2023-06-30T01:30:19.579Z,18.83
2023-06-30T01:32:48.110Z,18.95
2023-06-30T01:35:15.565Z,18.89
2023-06-30T01:37:43.459Z,18.83
2023-06-30T01:40:11.563Z,18.76
2023-06-30T01:42:39.299Z,18.85
2023-06-30T01:45:07.473Z,18.82
2023-06-30T01:47:34.989Z,18.88
2023-06-30T01:50:02.594Z,18.85
2023-06-30T01:52:31.002Z,18.80
2023-06-30T01:54:58.995Z,18.78
2023-06-30T01:57:26.647Z,18.81
2023-06-30T01:59:54.505Z,18.76
2023-06-30T02:02:23.001Z,18.81
2023-06-30T02:04:50.987Z,18.85
2023-06-30T02:07:18.483Z,18.77
2023-06-30T02:09:48.682Z,18.64
2023-06-30T02:12:17.330Z,18.69
2023-06-30T02:14:45.149Z,18.65
2023-06-30T02:17:13.332Z,18.70
2023-06-30T02:19:41.061Z,18.65
2023-06-30T02:22:08.852Z,18.58
2023-06-30T02:24:36.448Z,18.58
2023-06-30T02:27:04.153Z,18.60
2023-06-30T02:29:32.443Z,18.77
2023-06-30T02:31:59.934Z,18.58
2023-06-30T02:34:27.463Z,18.54
2023-06-30T02:36:55.296Z,18.47
2023-06-30T02:39:26.052Z,18.32
2023-06-30T02:41:55.280Z,18.29
2023-06-30T02:44:23.151Z,18.33
2023-06-30T02:46:51.578Z,18.47
2023-06-30T02:49:19.162Z,18.33
2023-06-30T02:51:46.995Z,18.41
2023-06-30T02:54:14.645Z,18.42
2023-06-30T02:56:43.064Z,18.40
2023-06-30T02:59:11.196Z,18.17
2023-06-30T03:01:38.732Z,18.16
2023-06-30T03:04:07.039Z,18.15
2023-06-30T03:06:35.772Z,18.23
2023-06-30T03:09:03.823Z,18.32
2023-06-30T03:11:31.753Z,18.27
2023-06-30T03:13:59.684Z,18.28
2023-06-30T03:16:29.383Z,18.33
2023-06-30T03:18:57.394Z,18.29
2023-06-30T03:21:25.117Z,18.26
2023-06-30T03:23:52.913Z,18.29
2023-06-30T03:26:20.574Z,18.20
2023-06-30T03:28:48.399Z,18.16
2023-06-30T03:31:16.115Z,18.13
2023-06-30T03:33:43.677Z,18.20
2023-06-30T03:36:11.928Z,18.20
2023-06-30T03:38:39.561Z,18.22
2023-06-30T03:41:07.307Z,18.36
2023-06-30T03:43:35.295Z,18.35
2023-06-30T03:46:03.215Z,18.61
2023-06-30T03:48:30.750Z,18.55
2023-06-30T03:50:58.833Z,18.67
2023-06-30T03:53:26.400Z,18.73
2023-06-30T03:55:54.024Z,19.01
2023-06-30T03:58:21.780Z,18.96
2023-06-30T04:00:49.242Z,19.11
2023-06-30T04:03:17.124Z,19.39
2023-06-30T04:05:45.038Z,19.74
2023-06-30T04:08:12.740Z,20.06
2023-06-30T04:10:40.635Z,20.13
2023-06-30T04:13:08.508Z,19.82
2023-06-30T04:15:36.053Z,19.87
2023-06-30T04:18:05.491Z,19.97
2023-06-30T04:20:33.025Z,20.09
2023-06-30T04:23:00.583Z,20.17
2023-06-30T04:25:28.932Z,20.30
2023-06-30T04:27:56.466Z,20.43
2023-06-30T04:30:23.967Z,20.63
2023-06-30T04:32:52.121Z,21.08
2023-06-30T04:35:19.697Z,21.13
2023-06-30T04:37:47.153Z,21.35
2023-06-30T04:40:14.955Z,21.52
2023-06-30T04:42:42.432Z,21.61
2023-06-30T04:45:10.283Z,21.47
2023-06-30T04:47:38.263Z,21.37
2023-06-30T04:50:06.050Z,21.34
2023-06-30T04:52:33.659Z,21.62
2023-06-30T04:55:01.749Z,21.66
2023-06-30T04:57:29.410Z,21.91
2023-06-30T04:59:58.127Z,22.04
2023-06-30T05:02:25.995Z,22.09
2023-06-30T05:04:53.418Z,22.07
2023-06-30T05:07:21.093Z,22.27
2023-06-30T05:09:48.895Z,22.46
2023-06-30T05:12:16.581Z,22.60
2023-06-30T05:14:44.107Z,22.76
2023-06-30T05:17:12.201Z,22.80
2023-06-30T05:19:39.781Z,22.85
2023-06-30T05:22:07.411Z,22.89
2023-06-30T05:24:35.388Z,23.03
2023-06-30T05:27:03.013Z,23.18
2023-06-30T05:29:32.589Z,23.36
2023-06-30T05:32:00.710Z,23.43
2023-06-30T05:34:29.922Z,23.36
2023-06-30T05:36:58.461Z,23.70
2023-06-30T05:39:26.249Z,23.65
2023-06-30T05:41:53.710Z,23.61
2023-06-30T05:44:21.440Z,23.87
2023-06-30T05:46:49.495Z,24.07
2023-06-30T05:49:17.226Z,24.42
2023-06-30T05:51:44.652Z,24.61
2023-06-30T05:54:13.846Z,24.60
2023-06-30T05:56:41.545Z,24.67
2023-06-30T05:59:11.532Z,24.39
2023-06-30T06:01:39.680Z,24.69
2023-06-30T06:04:12.007Z,24.87
2023-06-30T06:06:39.977Z,24.96
2023-06-30T06:09:07.774Z,25.39
2023-06-30T06:11:35.265Z,25.47
2023-06-30T06:14:02.782Z,25.76
2023-06-30T06:16:30.653Z,25.56
2023-06-30T06:18:58.921Z,25.74
2023-06-30T06:21:28.374Z,25.76
2023-06-30T06:23:56.450Z,25.91
2023-06-30T06:26:23.969Z,26.19
2023-06-30T06:28:51.466Z,26.29
2023-06-30T06:31:19.378Z,25.87
2023-06-30T06:33:46.933Z,26.71
2023-06-30T06:36:14.503Z,26.73
2023-06-30T06:38:42.282Z,26.81
2023-06-30T06:41:09.753Z,26.96
2023-06-30T06:43:37.197Z,27.03
2023-06-30T06:46:04.970Z,27.23
2023-06-30T06:48:32.934Z,27.24
2023-06-30T06:51:03.355Z,27.40
2023-06-30T06:53:34.406Z,27.28
2023-06-30T06:56:03.716Z,27.25
2023-06-30T06:58:33.911Z,26.90
2023-06-30T07:01:01.592Z,26.89
2023-06-30T07:03:29.151Z,27.39
2023-06-30T07:05:57.923Z,27.62
2023-06-30T07:08:26.245Z,27.78
2023-06-30T07:10:54.008Z,27.62
2023-06-30T07:13:22.880Z,27.60
2023-06-30T07:15:51.540Z,27.40
2023-06-30T07:18:20.497Z,27.85
2023-06-30T07:20:49.557Z,27.93
2023-06-30T07:23:17.767Z,28.05
2023-06-30T07:25:46.046Z,28.08
2023-06-30T07:28:14.585Z,28.49
2023-06-30T07:30:45.820Z,28.49
2023-06-30T07:33:14.469Z,28.31
2023-06-30T07:35:50.531Z,28.39
2023-06-30T07:38:20.664Z,28.96
2023-06-30T07:40:55.970Z,28.79
2023-06-30T07:43:25.220Z,29.02
2023-06-30T07:45:52.839Z,29.22
2023-06-30T07:48:20.529Z,28.73
2023-06-30T07:50:59.653Z,29.09
2023-06-30T07:53:35.265Z,28.68
2023-06-30T07:56:03.024Z,29.20
2023-06-30T07:58:30.747Z,28.94
2023-06-30T08:00:58.204Z,29.05
2023-06-30T08:03:27.057Z,29.00
2023-06-30T08:05:56.600Z,29.06
2023-06-30T08:08:25.015Z,29.02
2023-06-30T08:10:52.826Z,28.56
2023-06-30T08:13:20.378Z,29.05
2023-06-30T08:15:49.546Z,29.27
2023-06-30T08:18:31.480Z,29.17
2023-06-30T08:21:04.079Z,28.62
2023-06-30T08:23:32.359Z,29.20
2023-06-30T08:26:00.119Z,29.14
2023-06-30T08:28:27.729Z,29.48
2023-06-30T08:30:55.575Z,29.85
2023-06-30T08:33:39.913Z,30.23
2023-06-30T08:36:10.455Z,30.24
2023-06-30T08:38:38.090Z,30.48
2023-06-30T08:41:05.757Z,30.05
2023-06-30T08:43:34.112Z,30.22
2023-06-30T08:46:05.188Z,30.02
2023-06-30T08:48:33.484Z,30.23
2023-06-30T08:51:01.188Z,30.21
2023-06-30T08:53:30.348Z,30.02
2023-06-30T08:56:00.625Z,30.44
2023-06-30T08:58:28.758Z,30.37
2023-06-30T09:00:56.829Z,30.27
2023-06-30T09:03:25.036Z,30.29
2023-06-30T09:05:55.888Z,30.71
2023-06-30T09:08:25.090Z,31.04
2023-06-30T09:10:53.442Z,30.59
2023-06-30T09:13:24.428Z,30.91
2023-06-30T09:15:56.087Z,30.74
2023-06-30T09:18:24.145Z,30.50
2023-06-30T09:20:52.650Z,30.83
2023-06-30T09:23:20.383Z,30.93
2023-06-30T09:25:49.249Z,31.20
2023-06-30T09:28:17.481Z,31.05
2023-06-30T09:30:48.462Z,30.66
2023-06-30T09:33:21.677Z,31.35
2023-06-30T09:35:50.058Z,31.15
2023-06-30T09:38:19.927Z,31.52
2023-06-30T09:40:49.366Z,31.30
2023-06-30T09:43:19.334Z,31.53
2023-06-30T09:45:54.819Z,31.64
2023-06-30T09:48:29.218Z,31.24
2023-06-30T09:50:57.128Z,31.05
2023-06-30T09:53:25.422Z,30.88
2023-06-30T09:55:53.341Z,30.85
2023-06-30T09:58:21.705Z,31.18
2023-06-30T10:00:52.099Z,31.53
2023-06-30T10:03:20.347Z,31.24
2023-06-30T10:05:51.273Z,31.22
2023-06-30T10:08:22.112Z,31.83
2023-06-30T10:10:53.220Z,31.49
2023-06-30T10:13:21.610Z,31.49
2023-06-30T10:15:49.878Z,31.61
2023-06-30T10:18:19.042Z,31.49
2023-06-30T10:20:49.543Z,31.75
2023-06-30T10:23:20.985Z,32.31
2023-06-30T10:25:50.584Z,31.75
2023-06-30T10:28:19.555Z,31.18
2023-06-30T10:30:50.465Z,31.40
2023-06-30T10:33:18.324Z,31.71
2023-06-30T10:35:46.584Z,31.06
2023-06-30T10:38:15.058Z,32.01
2023-06-30T10:40:43.149Z,31.90
2023-06-30T10:43:11.515Z,31.47
2023-06-30T10:46:05.311Z,32.01
2023-06-30T10:48:33.280Z,31.59
2023-06-30T10:51:05.613Z,31.61
2023-06-30T10:53:34.540Z,32.10
2023-06-30T10:56:03.762Z,31.99
2023-06-30T10:58:31.802Z,31.92
2023-06-30T11:01:06.997Z,32.12
2023-06-30T11:03:56.759Z,31.65
2023-06-30T11:06:25.910Z,31.02
2023-06-30T11:09:01.448Z,31.60
2023-06-30T11:11:30.251Z,31.42
2023-06-30T11:14:07.953Z,31.45
2023-06-30T11:17:07.990Z,31.56
2023-06-30T11:19:37.624Z,31.53
2023-06-30T11:22:34.016Z,31.93
2023-06-30T11:25:12.120Z,32.16
2023-06-30T11:27:41.612Z,32.01
2023-06-30T11:30:09.435Z,32.55
2023-06-30T11:32:38.403Z,33.01
2023-06-30T11:35:11.189Z,32.93
2023-06-30T11:37:38.854Z,32.19
2023-06-30T11:40:07.760Z,31.82
2023-06-30T11:42:40.047Z,31.86
2023-06-30T11:45:08.587Z,32.01
2023-06-30T11:47:37.379Z,31.72
2023-06-30T11:50:09.450Z,31.91
2023-06-30T11:52:38.013Z,32.18
2023-06-30T11:55:09.626Z,32.28
2023-06-30T11:57:38.591Z,32.72
2023-06-30T12:00:18.090Z,32.95
2023-06-30T12:02:57.797Z,33.12
2023-06-30T12:05:27.160Z,32.92
2023-06-30T12:07:57.448Z,33.03
2023-06-30T12:10:38.351Z,32.92
2023-06-30T12:13:09.771Z,32.63
2023-06-30T12:15:42.141Z,33.31
2023-06-30T12:18:10.601Z,33.15
2023-06-30T12:20:40.521Z,33.13
2023-06-30T12:23:08.697Z,33.36
2023-06-30T12:25:37.150Z,33.21
2023-06-30T12:28:06.561Z,33.00
2023-06-30T12:30:35.078Z,33.14
2023-06-30T12:33:03.770Z,33.02
2023-06-30T12:35:33.742Z,33.11
2023-06-30T12:38:01.775Z,33.51
2023-06-30T12:40:32.316Z,33.75
2023-06-30T12:43:00.880Z,33.72
2023-06-30T12:45:29.032Z,33.65
2023-06-30T12:48:04.893Z,33.81
2023-06-30T12:50:33.500Z,33.87
2023-06-30T12:53:02.221Z,33.80
2023-06-30T12:55:30.154Z,33.68
2023-06-30T12:57:58.623Z,33.50
2023-06-30T13:00:26.554Z,33.08
2023-06-30T13:02:54.460Z,33.38
2023-06-30T13:05:23.039Z,33.28
2023-06-30T13:07:50.900Z,33.18
2023-06-30T13:10:18.848Z,33.18
2023-06-30T13:12:47.643Z,33.18
2023-06-30T13:15:15.527Z,33.07
2023-06-30T13:17:43.736Z,32.39
2023-06-30T13:20:12.249Z,32.66
2023-06-30T13:22:50.802Z,32.52
2023-06-30T13:25:51.857Z,32.50
2023-06-30T13:28:32.716Z,32.72
2023-06-30T13:37:26.932Z,32.73
2023-06-30T13:39:55.041Z,32.75
2023-06-30T13:42:23.646Z,33.21
2023-06-30T13:44:52.140Z,32.98
2023-06-30T13:47:20.695Z,33.33
2023-06-30T13:49:48.769Z,33.52
2023-06-30T13:52:16.935Z,33.31
2023-06-30T13:54:45.689Z,33.28
2023-06-30T13:57:13.484Z,32.86
2023-06-30T13:59:41.125Z,33.08
2023-06-30T14:02:09.802Z,32.97
2023-06-30T14:04:38.226Z,32.93
2023-06-30T14:07:06.258Z,33.08
2023-06-30T14:09:33.989Z,33.13
2023-06-30T14:12:01.766Z,32.83
2023-06-30T14:14:29.409Z,32.96
2023-06-30T14:16:57.141Z,33.02
2023-06-30T14:19:25.250Z,32.84
2023-06-30T14:21:52.992Z,32.57
2023-06-30T14:24:20.506Z,32.08
2023-06-30T14:26:48.265Z,31.91
2023-06-30T14:29:15.861Z,32.14
2023-06-30T14:31:43.487Z,32.13
2023-06-30T14:34:11.474Z,32.01
2023-06-30T14:36:38.961Z,32.01
2023-06-30T14:39:07.479Z,31.95
2023-06-30T14:41:36.067Z,32.24
2023-06-30T14:44:04.684Z,32.26
2023-06-30T14:46:32.402Z,32.32
2023-06-30T14:49:00.309Z,32.15
2023-06-30T14:51:27.843Z,31.91
2023-06-30T14:53:55.378Z,31.57
2023-06-30T14:56:23.579Z,32.06
2023-06-30T14:58:51.349Z,31.87
2023-06-30T15:01:19.195Z,32.00
2023-06-30T15:03:47.425Z,31.67
2023-06-30T15:06:15.119Z,31.58
2023-06-30T15:08:43.512Z,31.76
2023-06-30T15:11:11.502Z,32.07
2023-06-30T15:13:39.216Z,31.57
2023-06-30T15:16:06.793Z,31.26
2023-06-30T15:18:34.671Z,31.58
2023-06-30T15:21:02.256Z,31.48
2023-06-30T15:23:29.824Z,31.41
2023-06-30T15:25:57.602Z,31.41
2023-06-30T15:28:25.478Z,31.41
2023-06-30T15:30:53.708Z,31.76
2023-06-30T15:33:21.767Z,31.47
2023-06-30T15:35:49.542Z,31.58
2023-06-30T15:38:17.026Z,31.64
2023-06-30T15:40:46.000Z,31.61
2023-06-30T15:43:51.038Z,31.31
2023-06-30T15:46:19.305Z,31.68
2023-06-30T15:48:46.849Z,31.57
2023-06-30T15:51:27.592Z,31.39
2023-06-30T15:53:55.472Z,31.13
2023-06-30T15:56:23.240Z,31.33
2023-06-30T15:58:50.797Z,31.23
2023-06-30T16:01:18.878Z,31.38
2023-06-30T16:03:46.964Z,31.57
2023-06-30T16:06:15.286Z,31.28
2023-06-30T16:08:42.809Z,31.06
2023-06-30T16:11:11.853Z,31.30
2023-06-30T16:13:39.369Z,31.48
2023-06-30T16:16:07.392Z,31.47
2023-06-30T16:18:35.561Z,31.25
2023-06-30T16:21:04.151Z,31.34
2023-06-30T16:23:31.744Z,31.41
2023-06-30T16:25:59.605Z,31.32
2023-06-30T16:28:27.228Z,31.08
2023-06-30T16:30:55.359Z,31.18
2023-06-30T16:33:23.287Z,31.29
2023-06-30T16:35:50.866Z,30.91
2023-06-30T16:38:18.485Z,30.68
2023-06-30T16:40:46.323Z,30.92
2023-06-30T16:43:13.988Z,31.00
2023-06-30T16:45:41.611Z,31.13
2023-06-30T16:48:09.431Z,30.99
2023-06-30T16:50:37.087Z,30.96
2023-06-30T16:53:04.645Z,30.75
2023-06-30T16:55:32.394Z,30.95
2023-06-30T16:58:01.594Z,30.77
2023-06-30T17:00:29.103Z,31.03
2023-06-30T17:02:57.282Z,30.57
2023-06-30T17:05:25.497Z,30.59
2023-06-30T17:07:54.588Z,30.57
2023-06-30T17:10:22.720Z,30.11
2023-06-30T17:12:50.441Z,30.42
2023-06-30T17:15:19.470Z,30.40
2023-06-30T17:17:47.841Z,30.62
2023-06-30T17:20:15.653Z,30.54
2023-06-30T17:22:43.464Z,30.57
2023-06-30T17:25:11.897Z,30.52
2023-06-30T17:27:39.579Z,30.46
2023-06-30T17:30:07.855Z,30.63
2023-06-30T17:32:36.233Z,30.39
2023-06-30T17:35:09.741Z,30.42
2023-06-30T17:37:37.628Z,30.40
2023-06-30T17:40:05.739Z,30.37
2023-06-30T17:42:33.234Z,30.41
2023-06-30T17:45:01.147Z,30.40
2023-06-30T17:47:29.045Z,30.29
2023-06-30T17:49:56.713Z,30.31
2023-06-30T17:52:24.604Z,30.32
2023-06-30T17:54:52.439Z,30.34
2023-06-30T17:57:20.301Z,30.21
2023-06-30T17:59:48.738Z,30.16
2023-06-30T18:02:18.531Z,30.18
2023-06-30T18:04:48.318Z,30.02
2023-06-30T18:07:16.288Z,29.96
2023-06-30T18:09:45.707Z,29.91
2023-06-30T18:12:14.098Z,29.83
2023-06-30T18:14:43.116Z,29.69
2023-06-30T18:17:11.166Z,29.63
2023-06-30T18:19:41.489Z,29.51
2023-06-30T18:22:09.416Z,29.37
2023-06-30T18:24:37.102Z,29.22
2023-06-30T18:27:05.336Z,29.00
2023-06-30T18:29:32.993Z,28.94
2023-06-30T18:32:01.284Z,28.69
2023-06-30T18:34:29.531Z,28.57
2023-06-30T18:37:00.107Z,28.48
2023-06-30T18:39:28.052Z,28.44
2023-06-30T18:41:56.085Z,28.42
2023-06-30T18:44:25.182Z,28.24
2023-06-30T18:46:52.850Z,28.03
2023-06-30T18:49:23.637Z,27.94
2023-06-30T18:51:53.186Z,27.95
2023-06-30T18:54:21.328Z,27.79
2023-06-30T18:56:49.036Z,27.65
2023-06-30T18:59:16.676Z,27.52
2023-06-30T19:01:44.732Z,27.40
2023-06-30T19:04:12.659Z,27.35
2023-06-30T19:06:41.161Z,27.24
2023-06-30T19:09:09.178Z,27.16
2023-06-30T19:11:36.894Z,27.02
2023-06-30T19:14:04.525Z,27.00
2023-06-30T19:16:32.729Z,26.93
2023-06-30T19:19:00.727Z,26.71
2023-06-30T19:21:28.376Z,26.69
2023-06-30T19:23:59.995Z,26.61
2023-06-30T19:26:27.819Z,26.58
2023-06-30T19:28:58.041Z,26.49
2023-06-30T19:31:26.486Z,26.35
2023-06-30T19:33:55.166Z,26.32
2023-06-30T19:36:27.168Z,26.23
2023-06-30T19:38:54.972Z,26.14
2023-06-30T19:41:24.633Z,26.04
2023-06-30T19:43:52.435Z,25.97
2023-06-30T19:46:25.418Z,25.91
2023-06-30T19:48:54.266Z,25.76
2023-06-30T19:51:22.004Z,25.70
2023-06-30T19:53:49.727Z,25.58
2023-06-30T19:56:18.014Z,25.55
2023-06-30T19:58:46.049Z,25.49
2023-06-30T20:01:16.791Z,25.53
2023-06-30T20:03:45.429Z,25.52
2023-06-30T20:06:13.625Z,25.43
2023-06-30T20:08:41.882Z,25.38
2023-06-30T20:11:14.313Z,25.26
2023-06-30T20:13:42.377Z,25.25
2023-06-30T20:16:10.790Z,25.02
2023-06-30T20:18:38.664Z,24.99
2023-06-30T20:21:06.332Z,25.00
2023-06-30T20:23:34.344Z,24.93
2023-06-30T20:26:02.138Z,24.93
2023-06-30T20:28:29.779Z,25.04
2023-06-30T20:30:58.692Z,24.89
2023-06-30T20:33:26.400Z,24.81
2023-06-30T20:35:53.890Z,24.82
2023-06-30T20:38:22.139Z,24.72
2023-06-30T20:40:50.098Z,24.66
2023-06-30T20:43:18.063Z,24.55
2023-06-30T20:45:46.166Z,24.51
2023-06-30T20:48:13.743Z,24.64
2023-06-30T20:50:41.600Z,24.68
2023-06-30T20:53:09.645Z,24.44
2023-06-30T20:55:37.360Z,24.45
2023-06-30T20:58:05.071Z,24.44
2023-06-30T21:00:33.173Z,24.25
2023-06-30T21:03:01.037Z,24.07
2023-06-30T21:05:28.774Z,24.11
2023-06-30T21:07:56.774Z,24.09
2023-06-30T21:10:24.434Z,24.11
2023-06-30T21:12:52.053Z,24.02
2023-06-30T21:15:19.959Z,23.94
2023-06-30T21:17:47.582Z,23.98
2023-06-30T21:20:15.413Z,23.86
2023-06-30T21:22:44.366Z,23.85
2023-06-30T21:25:11.937Z,23.95
2023-06-30T21:27:39.562Z,23.84
2023-06-30T21:30:10.125Z,23.82
2023-06-30T21:32:38.876Z,23.81
2023-06-30T21:35:07.418Z,23.70
2023-06-30T21:37:35.118Z,23.77
2023-06-30T21:40:02.815Z,23.68
2023-06-30T21:42:30.708Z,23.58
2023-06-30T21:44:58.313Z,23.52
2023-06-30T21:47:26.082Z,23.54
2023-06-30T21:49:55.881Z,23.36
2023-06-30T21:52:23.551Z,23.26
2023-06-30T21:54:51.174Z,23.21
2023-06-30T21:57:19.152Z,23.24
2023-06-30T21:59:46.749Z,23.23
2023-06-30T22:02:14.466Z,23.10
2023-06-30T22:04:42.460Z,23.07
2023-06-30T22:07:10.181Z,23.05
2023-06-30T22:09:37.798Z,23.11
2023-06-30T22:12:06.620Z,23.07
2023-06-30T22:14:35.187Z,23.07
2023-06-30T22:17:02.735Z,22.97
2023-06-30T22:19:30.939Z,22.89
2023-06-30T22:22:00.912Z,22.90
2023-06-30T22:24:28.386Z,22.98
2023-06-30T22:26:56.106Z,22.89
2023-06-30T22:29:23.661Z,22.91
2023-06-30T22:31:51.122Z,22.82
2023-06-30T22:34:19.498Z,22.87
2023-06-30T22:36:46.921Z,22.75
2023-06-30T22:39:15.297Z,22.64
2023-06-30T22:41:43.305Z,22.56
2023-06-30T22:44:10.721Z,22.55
2023-06-30T22:46:38.226Z,22.41
2023-06-30T22:49:06.889Z,22.28
2023-06-30T22:51:34.354Z,22.22
2023-06-30T22:54:01.822Z,22.16
2023-06-30T22:56:30.701Z,22.08
2023-06-30T22:58:58.316Z,22.14
2023-06-30T23:01:25.827Z,22.18
2023-06-30T23:03:53.728Z,22.37
2023-06-30T23:06:21.216Z,22.41
2023-06-30T23:08:48.793Z,22.21
2023-06-30T23:11:16.645Z,22.32
2023-06-30T23:13:44.113Z,22.14
2023-06-30T23:16:12.020Z,21.99
2023-06-30T23:18:40.438Z,21.92
2023-06-30T23:21:12.844Z,21.86
2023-06-30T23:23:43.172Z,21.92
2023-06-30T23:26:12.214Z,21.86
2023-06-30T23:28:46.642Z,21.85
2023-06-30T23:31:17.789Z,21.79
2023-06-30T23:33:45.460Z,21.67
2023-06-30T23:36:12.915Z,21.71
2023-06-30T23:38:40.735Z,21.62
2023-06-30T23:41:08.528Z,21.62
2023-06-30T23:43:36.168Z,21.77
2023-06-30T23:46:04.034Z,21.76
2023-06-30T23:48:31.673Z,21.76
2023-06-30T23:50:59.110Z,21.72
2023-06-30T23:53:27.683Z,21.71
2023-06-30T23:55:55.254Z,21.52
2023-06-30T23:58:22.739Z,21.51
